createdAt,value
2018-04-18T00:02:24.726Z,102432.41
2018-04-18T00:04:52.862Z,102435.87
2018-04-18T00:07:21.006Z,102446.48
2018-04-18T00:09:49.132Z,102442.31
2018-04-18T00:12:17.300Z,102450.36
2018-04-18T00:14:45.448Z,102447.01
2018-04-18T00:17:13.578Z,102447.34
2018-04-18T00:19:41.725Z,102445.88
2018-04-18T00:22:13.549Z,102453.06
2018-04-18T00:24:41.693Z,102453.98
2018-04-18T00:27:10.074Z,102455.75
2018-04-18T00:29:38.221Z,102455.47
2018-04-18T00:32:20.643Z,102460.46
2018-04-18T00:34:48.796Z,102464.42
2018-04-18T00:37:16.922Z,102470.99
2018-04-18T00:39:45.049Z,102470.68
2018-04-18T00:42:20.672Z,102470.78
2018-04-18T00:44:48.828Z,102477.35
2018-04-18T00:47:16.945Z,102477.87
2018-04-18T00:49:45.101Z,102478.17
2018-04-18T00:52:16.906Z,102483.34
2018-04-18T00:54:45.058Z,102480.34
2018-04-18T00:57:13.175Z,102478.36
2018-04-18T00:59:47.068Z,102476.72
2018-04-18T01:02:15.186Z,102473.05
2018-04-18T01:04:43.342Z,102475.44
2018-04-18T01:07:22.032Z,102477.04
2018-04-18T01:09:50.171Z,102477.00
2018-04-18T01:12:18.317Z,102480.56
2018-04-18T01:14:46.504Z,102479.49
2018-04-18T01:17:14.654Z,102480.25
2018-04-18T01:19:42.761Z,102479.60
2018-04-18T01:22:10.924Z,102486.15
2018-04-18T01:24:39.041Z,102489.06
2018-04-18T01:27:07.172Z,102493.34
2018-04-18T01:29:38.550Z,102488.96
2018-04-18T01:32:06.680Z,102496.55
2018-04-18T01:34:34.829Z,102501.44
2018-04-18T01:37:02.976Z,102498.02
2018-04-18T01:39:31.122Z,102503.74
2018-04-18T01:41:59.275Z,102508.09
2018-04-18T01:44:27.439Z,102502.08
2018-04-18T01:46:55.571Z,102506.69
2018-04-18T01:49:31.581Z,102506.36
2018-04-18T01:51:59.718Z,102508.86
2018-04-18T01:54:27.844Z,102508.20
2018-04-18T01:56:55.995Z,102511.16
2018-04-18T01:59:24.184Z,102510.73
2018-04-18T02:01:52.276Z,102512.13
2018-04-18T02:04:20.584Z,102516.77
2018-04-18T02:06:48.716Z,102524.96
2018-04-18T02:09:16.836Z,102518.53
2018-04-18T02:11:45.206Z,102521.69
2018-04-18T02:14:17.556Z,102530.25
2018-04-18T02:16:45.714Z,102523.75
2018-04-18T02:19:13.856Z,102525.11
2018-04-18T02:21:41.978Z,102524.06
2018-04-18T02:24:11.998Z,102523.83
2018-04-18T02:26:40.146Z,102526.20
2018-04-18T02:29:08.276Z,102532.86
2018-04-18T02:31:36.414Z,102533.52
2018-04-18T02:34:04.560Z,102542.02
2018-04-18T02:36:32.713Z,102538.25
2018-04-18T02:39:00.828Z,102535.94
2018-04-18T02:41:41.644Z,102542.91
2018-04-18T02:44:09.783Z,102544.67
2018-04-18T02:46:37.948Z,102549.53
2018-04-18T02:49:06.089Z,102553.03
2018-04-18T02:51:36.239Z,102558.72
2018-04-18T02:54:04.378Z,102553.31
2018-04-18T02:56:32.728Z,102561.42
2018-04-18T02:59:00.856Z,102567.58
2018-04-18T03:01:28.980Z,102566.93
2018-04-18T03:03:57.116Z,102569.67
2018-04-18T03:06:25.270Z,102565.49
2018-04-18T03:08:53.417Z,102571.67
2018-04-18T03:11:21.539Z,102570.34
2018-04-18T03:13:49.702Z,102575.87
2018-04-18T03:16:17.851Z,102582.61
2018-04-18T03:18:45.992Z,102577.36
2018-04-18T03:21:14.128Z,102578.27
2018-04-18T03:24:01.222Z,102580.22
2018-04-18T03:26:29.389Z,102578.64
2018-04-18T03:28:57.534Z,102577.83
2018-04-18T03:34:33.555Z,102586.97
2018-04-18T03:37:01.714Z,102590.25
2018-04-18T03:39:29.850Z,102587.66
2018-04-18T03:42:04.096Z,102594.21
2018-04-18T03:44:37.111Z,102593.36
2018-04-18T03:47:05.268Z,102591.89
2018-04-18T03:49:35.423Z,102590.20
2018-04-18T03:52:08.102Z,102594.97
2018-04-18T03:54:36.259Z,102592.95
2018-04-18T03:57:04.378Z,102593.52
2018-04-18T03:59:32.524Z,102598.33
2018-04-18T04:02:00.653Z,102593.35
2018-04-18T04:04:28.799Z,102596.16
2018-04-18T04:06:58.897Z,102599.20
2018-04-18T04:09:27.042Z,102604.69
2018-04-18T04:12:09.179Z,102603.83
2018-04-18T04:14:39.219Z,102608.02
2018-04-18T04:17:19.071Z,102608.83
2018-04-18T04:20:01.158Z,102608.83
2018-04-18T04:22:46.853Z,102613.52
2018-04-18T04:25:14.987Z,102611.83
2018-04-18T04:27:43.946Z,102614.75
2018-04-18T04:30:13.038Z,102617.95
2018-04-18T04:32:42.074Z,102618.78
2018-04-18T04:35:11.136Z,102618.00
2018-04-18T04:37:49.940Z,102628.02
2018-04-18T04:40:20.133Z,102623.10
2018-04-18T04:42:48.280Z,102633.12
2018-04-18T04:45:16.429Z,102624.13
2018-04-18T04:47:50.913Z,102628.70
2018-04-18T04:50:22.905Z,102634.66
2018-04-18T04:52:51.040Z,102626.77
2018-04-18T04:55:19.185Z,102639.34
2018-04-18T04:57:47.324Z,102639.58
2018-04-18T05:00:20.804Z,102645.88
2018-04-18T05:02:48.950Z,102648.44
2018-04-18T05:05:17.125Z,102650.89
2018-04-18T05:07:45.263Z,102653.25
2018-04-18T05:10:13.425Z,102659.05
2018-04-18T05:12:41.612Z,102656.08
2018-04-18T05:15:09.753Z,102661.08
2018-04-18T05:17:41.690Z,102664.46
2018-04-18T05:20:09.868Z,102655.05
2018-04-18T05:22:38.027Z,102661.73
2018-04-18T05:25:08.080Z,102656.39
2018-04-18T05:27:36.220Z,102662.37
2018-04-18T05:30:04.444Z,102666.22
2018-04-18T05:32:40.466Z,102676.15
2018-04-18T05:35:23.518Z,102683.98
2018-04-18T05:37:51.696Z,102685.17
2018-04-18T05:40:19.838Z,102683.02
2018-04-18T05:42:47.970Z,102687.97
2018-04-18T05:45:16.237Z,102689.68
2018-04-18T05:47:44.303Z,102693.14
2018-04-18T05:50:12.472Z,102694.57
2018-04-18T05:52:40.623Z,102690.34
2018-04-18T05:55:08.760Z,102690.63
2018-04-18T05:57:36.907Z,102695.74
2018-04-18T06:00:05.095Z,102696.30
2018-04-18T06:02:33.183Z,102689.03
2018-04-18T06:05:01.304Z,102697.93
2018-04-18T06:07:29.461Z,102698.52
2018-04-18T06:09:57.613Z,102698.91
2018-04-18T06:12:25.728Z,102700.38
2018-04-18T06:14:53.887Z,102702.06
2018-04-18T06:17:25.083Z,102705.52
2018-04-18T06:19:53.243Z,102708.58
2018-04-18T06:22:24.330Z,102715.04
2018-04-18T06:24:52.458Z,102715.66
2018-04-18T06:27:20.622Z,102725.17
2018-04-18T06:29:48.793Z,102722.14
2018-04-18T06:32:16.941Z,102726.62
2018-04-18T06:34:45.063Z,102723.17
2018-04-18T06:39:40.473Z,102723.91
2018-04-18T06:42:08.603Z,102728.99
2018-04-18T06:44:40.220Z,102727.58
2018-04-18T06:47:08.370Z,102726.89
2018-04-18T06:49:36.588Z,102730.53
2018-04-18T06:52:04.740Z,102730.38
2018-04-18T06:54:33.797Z,102735.42
2018-04-18T06:57:01.946Z,102736.92
2018-04-18T06:59:37.615Z,102732.90
2018-04-18T07:02:05.743Z,102737.36
2018-04-18T07:04:33.893Z,102738.69
2018-04-18T07:07:02.030Z,102741.01
2018-04-18T07:09:30.159Z,102742.91
2018-04-18T07:11:58.286Z,102751.45
2018-04-18T07:14:26.503Z,102753.34
2018-04-18T07:16:54.610Z,102754.73
2018-04-18T07:19:22.753Z,102754.45
2018-04-18T07:21:50.883Z,102753.75
2018-04-18T07:24:19.038Z,102751.38
2018-04-18T07:26:47.171Z,102752.24
2018-04-18T07:29:15.619Z,102746.84
2018-04-18T07:31:43.755Z,102749.13
2018-04-18T07:34:11.902Z,102754.23
2018-04-18T07:36:40.073Z,102760.55
2018-04-18T07:39:08.217Z,102760.20
2018-04-18T07:41:36.329Z,102759.38
2018-04-18T07:44:04.468Z,102764.86
2018-04-18T07:46:32.621Z,102760.77
2018-04-18T07:49:00.740Z,102762.61
2018-04-18T07:51:28.865Z,102755.05
2018-04-18T07:53:57.019Z,102756.45
2018-04-18T07:56:25.168Z,102752.98
2018-04-18T07:58:53.329Z,102762.44
2018-04-18T08:01:21.465Z,102758.67
2018-04-18T08:03:49.610Z,102761.34
2018-04-18T08:06:17.762Z,102760.42
2018-04-18T08:08:45.916Z,102761.49
2018-04-18T08:11:14.053Z,102768.80
2018-04-18T08:13:42.194Z,102771.58
2018-04-18T08:16:10.328Z,102771.02
2018-04-18T08:18:38.475Z,102767.73
2018-04-18T08:21:06.616Z,102765.70
2018-04-18T08:23:34.751Z,102763.76
2018-04-18T08:26:02.905Z,102771.22
2018-04-18T08:28:31.072Z,102766.41
2018-04-18T08:30:59.206Z,102763.31
2018-04-18T08:33:27.344Z,102754.94
2018-04-18T08:35:55.483Z,102757.88
2018-04-18T08:38:23.611Z,102763.23
2018-04-18T08:40:51.734Z,102766.39
2018-04-18T08:43:19.888Z,102767.70
2018-04-18T08:45:48.004Z,102762.37
2018-04-18T08:48:16.155Z,102768.14
2018-04-18T08:50:44.304Z,102760.81
2018-04-18T08:53:12.431Z,102758.57
2018-04-18T08:55:40.554Z,102762.06
2018-04-18T08:58:08.871Z,102751.73
2018-04-18T09:00:37.049Z,102754.63
2018-04-18T09:03:05.185Z,102748.96
2018-04-18T09:05:33.596Z,102754.12
2018-04-18T09:08:01.748Z,102752.71
2018-04-18T09:10:29.899Z,102750.02
2018-04-18T09:12:58.075Z,102757.20
2018-04-18T09:15:26.223Z,102750.66
2018-04-18T09:17:54.333Z,102750.53
2018-04-18T09:20:22.484Z,102744.95
2018-04-18T09:22:50.597Z,102751.89
2018-04-18T09:25:18.729Z,102748.02
2018-04-18T09:27:47.566Z,102738.14
2018-04-18T09:30:15.699Z,102743.83
2018-04-18T09:32:43.831Z,102739.58
2018-04-18T09:35:11.993Z,102745.37
2018-04-18T09:37:40.137Z,102744.41
2018-04-18T09:40:08.287Z,102740.84
2018-04-18T09:42:36.665Z,102742.68
2018-04-18T09:45:04.800Z,102733.60
2018-04-18T09:47:32.925Z,102742.83
2018-04-18T09:50:01.092Z,102736.92
2018-04-18T09:52:29.258Z,102736.79
2018-04-18T09:54:57.379Z,102737.48
2018-04-18T09:57:25.513Z,102737.05
2018-04-18T09:59:53.673Z,102740.65
2018-04-18T10:02:27.372Z,102731.70
2018-04-18T10:04:55.492Z,102733.88
2018-04-18T10:07:23.605Z,102734.08
2018-04-18T10:09:51.736Z,102732.73
2018-04-18T10:12:19.888Z,102733.16
2018-04-18T10:14:48.029Z,102728.26
2018-04-18T10:17:16.179Z,102735.09
2018-04-18T10:19:44.342Z,102739.95
2018-04-18T10:22:12.465Z,102738.73
2018-04-18T10:24:40.640Z,102735.91
2018-04-18T10:27:08.762Z,102738.37
2018-04-18T10:29:36.904Z,102734.25
2018-04-18T10:32:05.031Z,102732.73
2018-04-18T10:34:33.157Z,102737.28
2018-04-18T10:37:01.310Z,102741.59
2018-04-18T10:39:29.456Z,102731.08
2018-04-18T10:41:57.597Z,102727.94
2018-04-18T10:44:25.722Z,102728.33
2018-04-18T10:46:53.868Z,102729.20
2018-04-18T10:49:22.017Z,102720.84
2018-04-18T10:51:50.154Z,102726.02
2018-04-18T10:54:18.309Z,102719.55
2018-04-18T10:56:46.420Z,102712.16
2018-04-18T10:59:14.558Z,102713.60
2018-04-18T11:01:42.703Z,102709.34
2018-04-18T11:04:10.852Z,102705.73
2018-04-18T11:06:38.976Z,102705.52
2018-04-18T11:09:07.119Z,102709.03
2018-04-18T11:11:35.257Z,102703.72
2018-04-18T11:14:03.365Z,102710.02
2018-04-18T11:16:31.530Z,102709.25
2018-04-18T11:18:59.659Z,102701.89
2018-04-18T11:21:27.766Z,102699.81
2018-04-18T11:23:55.933Z,102700.19
2018-04-18T11:26:24.064Z,102690.51
2018-04-18T11:28:52.185Z,102687.84
2018-04-18T11:31:20.331Z,102691.17
2018-04-18T11:33:48.486Z,102682.69
2018-04-18T11:36:16.745Z,102695.04
2018-04-18T11:38:44.872Z,102688.04
2018-04-18T11:41:13.026Z,102681.59
2018-04-18T11:43:41.146Z,102675.77
2018-04-18T11:46:09.302Z,102680.59
2018-04-18T11:48:37.438Z,102681.66
2018-04-18T11:51:05.575Z,102682.29
2018-04-18T11:53:33.729Z,102672.45
2018-04-18T11:56:01.867Z,102672.19
2018-04-18T11:58:31.912Z,102677.37
2018-04-18T12:01:00.066Z,102677.23
2018-04-18T12:03:28.199Z,102675.66
2018-04-18T12:05:56.340Z,102671.14
2018-04-18T12:08:24.510Z,102664.13
2018-04-18T12:10:52.621Z,102658.88
2018-04-18T12:13:20.768Z,102660.14
2018-04-18T12:15:48.927Z,102654.76
2018-04-18T12:18:17.068Z,102656.00
2018-04-18T12:20:45.184Z,102652.27
2018-04-18T12:23:13.362Z,102665.41
2018-04-18T12:25:41.504Z,102657.00
2018-04-18T12:28:09.632Z,102654.56
2018-04-18T12:30:37.778Z,102645.98
2018-04-18T12:33:05.938Z,102647.89
2018-04-18T12:35:34.071Z,102646.50
2018-04-18T12:38:02.217Z,102649.81
2018-04-18T12:40:30.372Z,102640.31
2018-04-18T12:42:58.512Z,102638.67
2018-04-18T12:45:26.638Z,102636.72
2018-04-18T12:47:54.766Z,102638.66
2018-04-18T12:50:22.925Z,102639.60
2018-04-18T12:52:51.076Z,102629.94
2018-04-18T12:55:19.225Z,102629.62
2018-04-18T12:57:47.354Z,102622.14
2018-04-18T13:00:15.510Z,102623.84
2018-04-18T13:02:43.641Z,102620.30
2018-04-18T13:05:11.773Z,102615.21
2018-04-18T13:07:40.111Z,102617.00
2018-04-18T13:10:08.269Z,102611.64
2018-04-18T13:12:36.387Z,102609.55
2018-04-18T13:15:04.532Z,102603.20
2018-04-18T13:17:32.663Z,102610.48
2018-04-18T13:20:00.784Z,102599.84
2018-04-18T13:22:28.964Z,102607.02
2018-04-18T13:24:57.100Z,102596.45
2018-04-18T13:27:25.221Z,102597.69
2018-04-18T13:29:53.392Z,102586.51
2018-04-18T13:32:21.526Z,102584.86
2018-04-18T13:34:49.658Z,102595.02
2018-04-18T13:37:17.819Z,102590.89
2018-04-18T13:39:45.955Z,102584.54
2018-04-18T13:42:14.087Z,102582.20
2018-04-18T13:44:42.247Z,102575.27
2018-04-18T13:47:10.377Z,102576.38
2018-04-18T13:49:38.497Z,102570.07
2018-04-18T13:52:06.665Z,102568.30
2018-04-18T13:54:34.812Z,102564.88
2018-04-18T13:57:02.932Z,102560.69
2018-04-18T13:59:31.078Z,102563.02
2018-04-18T14:01:59.201Z,102565.48
2018-04-18T14:04:27.360Z,102559.32
2018-04-18T14:06:55.497Z,102554.42
2018-04-18T14:09:23.649Z,102559.70
2018-04-18T14:11:51.779Z,102560.14
2018-04-18T14:14:19.937Z,102555.20
2018-04-18T14:16:48.066Z,102551.60
2018-04-18T14:19:16.192Z,102548.30
2018-04-18T14:21:44.374Z,102539.31
2018-04-18T14:24:12.506Z,102541.63
2018-04-18T14:26:40.708Z,102539.84
2018-04-18T14:29:08.789Z,102538.56
2018-04-18T14:31:36.926Z,102534.20
2018-04-18T14:34:05.057Z,102540.16
2018-04-18T14:36:33.227Z,102531.44
2018-04-18T14:39:01.361Z,102527.26
2018-04-18T14:41:29.514Z,102529.09
2018-04-18T14:43:57.631Z,102523.61
2018-04-18T14:46:25.765Z,102523.05
2018-04-18T14:48:53.897Z,102516.08
2018-04-18T14:51:22.210Z,102509.87
2018-04-18T14:53:50.342Z,102513.45
2018-04-18T14:56:18.498Z,102510.17
2018-04-18T14:58:46.988Z,102509.75
2018-04-18T15:01:15.501Z,102509.72
2018-04-18T15:03:43.645Z,102507.11
2018-04-18T15:06:11.797Z,102506.62
2018-04-18T15:08:39.939Z,102505.64
2018-04-18T15:11:08.091Z,102498.88
2018-04-18T15:13:36.250Z,102501.33
2018-04-18T15:16:05.301Z,102496.05
2018-04-18T15:18:33.443Z,102495.42
2018-04-18T15:21:01.600Z,102490.30
2018-04-18T15:23:33.314Z,102495.22
2018-04-18T15:26:01.453Z,102492.75
2018-04-18T15:28:29.663Z,102495.28
2018-04-18T15:30:57.736Z,102491.80
2018-04-18T15:33:26.623Z,102482.41
2018-04-18T15:35:54.756Z,102490.70
2018-04-18T15:38:22.893Z,102475.48
2018-04-18T15:40:51.028Z,102475.80
2018-04-18T15:43:19.371Z,102473.83
2018-04-18T15:45:47.524Z,102475.33
2018-04-18T15:48:15.679Z,102478.05
2018-04-18T15:50:43.824Z,102481.03
2018-04-18T15:53:11.952Z,102474.56
2018-04-18T15:55:40.097Z,102477.88
2018-04-18T15:58:08.232Z,102467.48
2018-04-18T16:00:36.484Z,102468.86
2018-04-18T16:03:04.591Z,102471.39
2018-04-18T16:05:32.749Z,102462.14
2018-04-18T16:08:00.871Z,102455.09
2018-04-18T16:10:29.008Z,102461.88
2018-04-18T16:12:57.336Z,102461.61
2018-04-18T16:15:25.451Z,102459.05
2018-04-18T16:17:53.573Z,102455.78
2018-04-18T16:20:21.712Z,102450.74
2018-04-18T16:22:49.841Z,102450.81
2018-04-18T16:25:17.992Z,102450.34
2018-04-18T16:27:46.131Z,102451.16
2018-04-18T16:30:26.002Z,102451.96
2018-04-18T16:32:54.150Z,102452.44
2018-04-18T16:35:22.300Z,102450.63
2018-04-18T16:37:50.430Z,102453.66
2018-04-18T16:40:18.589Z,102449.50
2018-04-18T16:42:46.733Z,102445.97
2018-04-18T16:45:14.858Z,102443.20
2018-04-18T16:47:43.023Z,102437.25
2018-04-18T16:50:11.158Z,102439.70
2018-04-18T16:52:39.293Z,102438.45
2018-04-18T16:55:07.441Z,102435.31
2018-04-18T16:57:35.600Z,102433.41
2018-04-18T17:00:03.741Z,102434.27
2018-04-18T17:02:31.904Z,102434.74
2018-04-18T17:05:03.261Z,102435.30
2018-04-18T17:07:31.421Z,102433.92
2018-04-18T17:09:59.563Z,102429.92
2018-04-18T17:12:27.687Z,102431.06
2018-04-18T17:14:55.807Z,102431.16
2018-04-18T17:17:23.936Z,102430.37
2018-04-18T17:19:52.102Z,102431.78
2018-04-18T17:22:20.227Z,102422.27
2018-04-18T17:24:48.389Z,102426.56
2018-04-18T17:27:16.513Z,102425.34
2018-04-18T17:29:44.639Z,102426.45
2018-04-18T17:32:12.824Z,102420.25
2018-04-18T17:34:40.931Z,102418.05
2018-04-18T17:37:09.079Z,102417.91
2018-04-18T17:39:37.222Z,102417.77
2018-04-18T17:42:05.378Z,102419.00
2018-04-18T17:44:33.509Z,102410.88
2018-04-18T17:47:01.884Z,102417.45
2018-04-18T17:49:30.012Z,102423.23
2018-04-18T17:51:58.141Z,102423.23
2018-04-18T17:54:26.292Z,102422.95
2018-04-18T17:56:54.418Z,102425.92
2018-04-18T17:59:22.550Z,102427.71
2018-04-18T18:01:50.702Z,102427.58
2018-04-18T18:04:18.817Z,102424.09
2018-04-18T18:06:46.933Z,102420.34
2018-04-18T18:09:15.091Z,102423.04
2018-04-18T18:11:43.227Z,102431.53
2018-04-18T18:14:11.363Z,102433.53
2018-04-18T18:16:39.517Z,102434.00
2018-04-18T18:19:07.665Z,102436.13
2018-04-18T18:21:35.792Z,102430.04
2018-04-18T18:24:03.922Z,102432.64
2018-04-18T18:26:32.059Z,102435.62
2018-04-18T18:29:00.189Z,102431.72
2018-04-18T18:31:29.437Z,102443.23
2018-04-18T18:34:00.828Z,102444.56
2018-04-18T18:36:28.958Z,102439.97
2018-04-18T18:38:57.111Z,102440.72
2018-04-18T18:41:25.257Z,102447.20
2018-04-18T18:43:53.395Z,102447.56
2018-04-18T18:46:21.555Z,102447.94
2018-04-18T18:48:49.686Z,102447.31
2018-04-18T18:51:17.828Z,102458.09
2018-04-18T18:53:45.957Z,102464.30
2018-04-18T18:56:14.080Z,102465.30
2018-04-18T18:58:42.232Z,102464.82
2018-04-18T19:01:10.402Z,102463.08
2018-04-18T19:03:41.595Z,102462.10
2018-04-18T19:06:09.729Z,102464.46
2018-04-18T19:08:37.890Z,102459.47
2018-04-18T19:11:06.027Z,102465.03
2018-04-18T19:13:34.167Z,102466.08
2018-04-18T19:16:02.337Z,102468.20
2018-04-18T19:18:30.452Z,102470.59
2018-04-18T19:20:58.609Z,102475.48
2018-04-18T19:23:26.756Z,102473.42
2018-04-18T19:25:54.891Z,102479.56
2018-04-18T19:28:23.116Z,102478.48
2018-04-18T19:30:51.181Z,102483.33
2018-04-18T19:33:19.317Z,102486.48
2018-04-18T19:35:47.447Z,102484.88
2018-04-18T19:38:15.576Z,102484.64
2018-04-18T19:40:43.721Z,102483.84
2018-04-18T19:43:11.866Z,102489.88
2018-04-18T19:45:40.006Z,102486.94
2018-04-18T19:48:08.130Z,102486.77
2018-04-18T19:50:36.252Z,102479.08
2018-04-18T19:53:04.445Z,102485.06
2018-04-18T19:55:32.585Z,102478.73
2018-04-18T19:58:00.724Z,102475.27
2018-04-18T20:00:28.872Z,102480.36
2018-04-18T20:02:57.149Z,102476.05
2018-04-18T20:05:25.261Z,102479.34
2018-04-18T20:07:53.398Z,102471.27
2018-04-18T20:10:21.540Z,102481.86
2018-04-18T20:12:49.652Z,102480.10
2018-04-18T20:15:17.785Z,102475.86
2018-04-18T20:17:45.922Z,102477.63
2018-04-18T20:20:14.062Z,102473.85
2018-04-18T20:22:42.199Z,102477.44
2018-04-18T20:25:10.326Z,102474.83
2018-04-18T20:27:38.472Z,102478.27
2018-04-18T20:30:06.768Z,102472.97
2018-04-18T20:32:38.532Z,102467.53
2018-04-18T20:35:06.696Z,102472.19
2018-04-18T20:37:34.853Z,102473.51
2018-04-18T20:40:02.982Z,102473.80
2018-04-18T20:42:31.131Z,102477.98
2018-04-18T20:44:59.280Z,102468.06
2018-04-18T20:47:27.418Z,102476.38
2018-04-18T20:49:55.568Z,102477.70
2018-04-18T20:52:23.720Z,102475.44
2018-04-18T20:54:51.845Z,102485.90
2018-04-18T20:57:19.979Z,102484.02
2018-04-18T20:59:48.859Z,102486.15
2018-04-18T21:02:16.996Z,102488.70
2018-04-18T21:04:45.128Z,102494.59
2018-04-18T21:07:15.280Z,102488.91
2018-04-18T21:09:43.433Z,102489.41
2018-04-18T21:12:11.656Z,102485.97
2018-04-18T21:14:39.804Z,102479.89
2018-04-18T21:17:07.928Z,102489.08
2018-04-18T21:19:36.086Z,102484.73
2018-04-18T21:22:04.270Z,102487.84
2018-04-18T21:24:32.517Z,102482.27
2018-04-18T21:27:00.670Z,102484.40
2018-04-18T21:29:28.827Z,102482.88
2018-04-18T21:31:57.079Z,102481.83
2018-04-18T21:34:25.313Z,102485.45
2018-04-18T21:36:53.486Z,102488.16
2018-04-18T21:39:21.684Z,102490.84
2018-04-18T21:41:49.871Z,102486.56
2018-04-18T21:44:18.005Z,102491.97
2018-04-18T21:46:46.172Z,102489.79
2018-04-18T21:49:14.408Z,102496.81
2018-04-18T21:51:42.704Z,102498.45
2018-04-18T21:54:10.838Z,102492.00
2018-04-18T21:56:38.956Z,102496.40
2018-04-18T21:59:07.125Z,102503.75
2018-04-18T22:07:34.740Z,102493.03
2018-04-18T22:10:20.463Z,102491.12
2018-04-18T22:12:48.602Z,102494.03
2018-04-18T22:15:16.752Z,102498.49
2018-04-18T22:17:44.917Z,102492.00
2018-04-18T22:20:13.049Z,102496.28
2018-04-18T22:22:41.183Z,102492.80
2018-04-18T22:25:09.333Z,102491.58
2018-04-18T22:27:40.491Z,102488.97
2018-04-18T22:30:20.316Z,102491.13
2018-04-18T22:32:48.432Z,102484.63
2018-04-18T22:35:16.590Z,102493.55
2018-04-18T22:37:44.728Z,102487.66
2018-04-18T22:40:12.852Z,102495.03
2018-04-18T22:42:40.997Z,102495.47
2018-04-18T22:45:09.124Z,102492.22
2018-04-18T22:47:37.272Z,102491.89
2018-04-18T22:50:05.409Z,102493.56
2018-04-18T22:52:33.569Z,102490.59
2018-04-18T22:55:01.700Z,102497.20
2018-04-18T22:57:29.834Z,102493.73
2018-04-18T22:59:57.978Z,102496.58
2018-04-18T23:02:26.129Z,102486.84
2018-04-18T23:04:54.256Z,102490.52
2018-04-18T23:07:22.394Z,102488.31
2018-04-18T23:09:50.510Z,102492.42
2018-04-18T23:12:18.627Z,102489.48
2018-04-18T23:14:46.780Z,102492.20
2018-04-18T23:17:14.982Z,102487.55
2018-04-18T23:19:43.103Z,102486.98
2018-04-18T23:22:11.259Z,102483.97
2018-04-18T23:24:39.380Z,102487.39
2018-04-18T23:27:07.500Z,102483.23
2018-04-18T23:29:35.678Z,102486.56
2018-04-18T23:32:03.804Z,102480.46
2018-04-18T23:34:31.934Z,102483.49
2018-04-18T23:37:00.089Z,102480.95
2018-04-18T23:39:28.230Z,102480.64
2018-04-18T23:41:56.388Z,102476.97
2018-04-18T23:44:24.509Z,102475.67
2018-04-18T23:46:52.645Z,102476.52
2018-04-18T23:49:20.779Z,102482.67
2018-04-18T23:51:48.918Z,102481.64
2018-04-18T23:54:17.033Z,102476.40
2018-04-18T23:56:45.173Z,102473.55
2018-04-18T23:59:13.341Z,102471.19
